Time;durP1;ratioP1;P1;durP2;ratioP2;P2;SDS_P1;SDS_P2;PMS_P1;PMS_P2;Temp;Humidity;BMP_temperature;BMP_pressure;BME280_temperature;BME280_humidity;BME280_pressure;Samples;Min_cycle;Max_cycle;Signal;HPM_P1;HPM_P2
2021/05/27 00:02:25;;;;;;;2.50;1.43;;;9.60;99.90;;;;;;5069935;28;20445;-64
2021/05/27 00:04:52;;;;;;;1.73;1.27;;;9.60;99.90;;;;;;5070349;28;20538;-65
2021/05/27 00:07:19;;;;;;;2.97;1.53;;;9.60;99.90;;;;;;5070013;28;20501;-65
2021/05/27 00:09:45;;;;;;;2.67;1.60;;;9.60;99.90;;;;;;5069693;28;20454;-65
2021/05/27 00:12:12;;;;;;;2.20;1.40;;;9.60;99.90;;;;;;5070155;28;20547;-64
2021/05/27 00:14:38;;;;;;;2.50;1.33;;;9.60;99.90;;;;;;5070176;28;20453;-65
2021/05/27 00:17:05;;;;;;;2.47;1.60;;;9.70;99.90;;;;;;5073683;28;20447;-64
2021/05/27 00:19:32;;;;;;;2.80;1.60;;;9.60;99.90;;;;;;5073493;28;20552;-64
2021/05/27 00:21:58;;;;;;;2.40;1.57;;;9.70;99.90;;;;;;5073760;28;20479;-65
2021/05/27 00:24:25;;;;;;;2.40;1.70;;;9.70;99.90;;;;;;5073903;28;20447;-64
2021/05/27 00:26:51;;;;;;;2.20;1.60;;;9.70;99.90;;;;;;5073865;28;20585;-65
2021/05/27 00:29:17;;;;;;;3.93;1.77;;;9.70;99.90;;;;;;5073348;28;20447;-65
2021/05/27 00:31:44;;;;;;;2.53;1.30;;;9.80;99.90;;;;;;5073265;28;20466;-65
2021/05/27 00:34:11;;;;;;;2.10;1.47;;;9.80;99.90;;;;;;5073719;28;20480;-65
2021/05/27 00:36:37;;;;;;;2.57;1.70;;;9.80;99.90;;;;;;5073518;28;20492;-64
2021/05/27 00:39:04;;;;;;;8.40;1.87;;;9.80;99.90;;;;;;5073060;28;21021;-64
2021/05/27 00:41:31;;;;;;;3.30;1.80;;;9.80;99.90;;;;;;5073316;28;20509;-65
2021/05/27 00:43:57;;;;;;;3.30;2.07;;;9.80;99.90;;;;;;5073368;28;20529;-65
2021/05/27 00:46:23;;;;;;;4.00;1.60;;;9.80;99.90;;;;;;5073058;28;20550;-64
2021/05/27 00:48:59;;;;;;;3.00;1.63;;;9.80;99.90;;;;;;5073139;28;20435;-65
2021/05/27 00:51:28;;;;;;;4.50;1.77;;;9.80;99.90;;;;;;5072916;28;20462;-66
2021/05/27 00:53:56;;;;;;;3.37;1.93;;;9.80;99.90;;;;;;5072885;28;20593;-65
2021/05/27 00:56:22;;;;;;;2.40;1.67;;;9.80;99.90;;;;;;5072897;28;20450;-65
2021/05/27 00:58:49;;;;;;;2.63;1.53;;;9.80;99.90;;;;;;5072744;28;20500;-65
2021/05/27 01:01:16;;;;;;;2.13;1.47;;;9.70;99.90;;;;;;5072781;28;20499;-65
2021/05/27 01:03:43;;;;;;;2.00;1.30;;;9.80;99.90;;;;;;5072712;28;20963;-64
2021/05/27 01:06:09;;;;;;;3.23;1.73;;;9.80;99.90;;;;;;5072592;28;20970;-64
2021/05/27 01:08:37;;;;;;;2.20;1.70;;;9.80;99.90;;;;;;5070967;28;20439;-65
2021/05/27 01:11:04;;;;;;;2.17;1.40;;;9.70;99.90;;;;;;5071156;28;20463;-64
2021/05/27 01:13:32;;;;;;;3.30;1.77;;;9.70;99.90;;;;;;5072515;28;20535;-65
2021/05/27 01:15:59;;;;;;;2.70;1.87;;;9.70;99.90;;;;;;5072684;28;20922;-65
2021/05/27 01:18:27;;;;;;;2.80;1.50;;;9.70;99.90;;;;;;5071366;28;20531;-65
2021/05/27 01:20:55;;;;;;;2.40;1.40;;;9.70;99.90;;;;;;5072041;28;20467;-64
2021/05/27 01:23:25;;;;;;;3.13;1.67;;;9.70;99.90;;;;;;5071904;28;20454;-64
2021/05/27 01:25:54;;;;;;;2.20;1.60;;;9.70;99.90;;;;;;5072176;28;20447;-65
2021/05/27 01:28:21;;;;;;;2.33;1.60;;;9.70;99.90;;;;;;5071707;28;20963;-65
2021/05/27 01:30:48;;;;;;;3.30;1.63;;;9.70;99.90;;;;;;5072180;28;20596;-65
2021/05/27 01:33:17;;;;;;;2.30;1.50;;;9.60;99.90;;;;;;5072840;28;20505;-64
2021/05/27 01:35:44;;;;;;;4.07;1.70;;;9.70;99.90;;;;;;5072396;28;20478;-64
2021/05/27 01:38:12;;;;;;;6.43;2.40;;;9.60;99.90;;;;;;5072259;28;20483;-65
2021/05/27 01:40:40;;;;;;;2.50;1.50;;;9.60;99.90;;;;;;5072001;28;20847;-65
2021/05/27 01:43:07;;;;;;;3.63;1.60;;;9.50;99.90;;;;;;5072374;28;20501;-65
2021/05/27 01:45:33;;;;;;;3.03;2.20;;;9.50;99.90;;;;;;5072202;28;20828;-65
2021/05/27 01:48:00;;;;;;;2.13;1.47;;;9.50;99.90;;;;;;5072128;28;20443;-65
2021/05/27 01:50:26;;;;;;;1.90;1.40;;;9.50;99.90;;;;;;5071615;28;20466;-64
2021/05/27 01:52:56;;;;;;;3.90;1.97;;;9.50;99.90;;;;;;5071792;28;20530;-64
2021/05/27 01:55:23;;;;;;;2.77;1.60;;;9.40;99.90;;;;;;5071971;28;20447;-64
2021/05/27 01:57:50;;;;;;;2.90;2.03;;;9.40;99.90;;;;;;5071931;28;20995;-65
2021/05/27 02:00:18;;;;;;;5.73;1.53;;;9.40;99.90;;;;;;5071752;28;20538;-65
2021/05/27 02:02:45;;;;;;;2.10;1.40;;;9.40;99.90;;;;;;5072082;28;20851;-64
2021/05/27 02:05:12;;;;;;;2.57;1.90;;;9.40;99.90;;;;;;5071506;28;21020;-65
2021/05/27 02:07:38;;;;;;;5.20;1.77;;;9.40;99.90;;;;;;5071508;28;20530;-65
2021/05/27 02:10:06;;;;;;;2.60;1.93;;;9.40;99.90;;;;;;5071262;28;20471;-64
2021/05/27 02:12:33;;;;;;;2.60;1.77;;;9.40;99.90;;;;;;5071645;28;20443;-64
2021/05/27 02:15:00;;;;;;;2.10;1.70;;;9.40;99.90;;;;;;5071619;28;20479;-64
2021/05/27 02:17:26;;;;;;;4.50;1.80;;;9.40;99.90;;;;;;5071376;28;20462;-64
2021/05/27 02:19:53;;;;;;;3.07;1.80;;;9.30;99.90;;;;;;5070990;28;20875;-64
2021/05/27 02:22:19;;;;;;;2.23;1.67;;;9.30;99.90;;;;;;5071010;28;20455;-65
2021/05/27 02:24:46;;;;;;;2.43;1.63;;;9.30;99.90;;;;;;5071254;28;20535;-64
2021/05/27 02:27:12;;;;;;;7.67;2.23;;;9.20;99.90;;;;;;5071292;28;20458;-65
2021/05/27 02:29:39;;;;;;;2.50;2.10;;;9.20;99.90;;;;;;5071593;28;21309;-64
2021/05/27 02:32:06;;;;;;;2.97;2.17;;;9.10;99.90;;;;;;5071651;28;20454;-64
2021/05/27 02:34:33;;;;;;;3.77;1.90;;;9.10;99.90;;;;;;5071191;28;21010;-64
2021/05/27 02:36:59;;;;;;;2.93;2.00;;;9.10;99.90;;;;;;5071396;28;20447;-64
2021/05/27 02:39:27;;;;;;;6.33;2.10;;;9.00;99.90;;;;;;5070317;28;20475;-65
2021/05/27 02:41:53;;;;;;;3.57;2.20;;;9.00;99.90;;;;;;5070774;28;20463;-65
2021/05/27 02:44:19;;;;;;;2.53;2.00;;;9.00;99.90;;;;;;5071137;28;20439;-66
2021/05/27 02:46:46;;;;;;;3.40;2.20;;;9.00;99.90;;;;;;5070857;28;20443;-65
2021/05/27 02:49:13;;;;;;;3.87;2.50;;;9.10;99.90;;;;;;5070696;28;20960;-65
2021/05/27 02:51:39;;;;;;;3.77;2.10;;;9.10;99.90;;;;;;5070723;28;20550;-65
2021/05/27 02:54:06;;;;;;;3.53;2.50;;;9.10;99.90;;;;;;5071244;28;20878;-65
2021/05/27 02:56:33;;;;;;;3.37;2.50;;;9.20;99.90;;;;;;5071425;28;20522;-65
2021/05/27 02:58:59;;;;;;;4.23;2.50;;;9.20;99.90;;;;;;5070423;28;20483;-65
2021/05/27 03:01:25;;;;;;;3.10;1.87;;;9.20;99.90;;;;;;5070480;28;20502;-65
2021/05/27 03:03:52;;;;;;;3.47;2.50;;;9.10;99.90;;;;;;5070584;28;20956;-65
2021/05/27 03:06:19;;;;;;;3.83;2.40;;;9.10;99.90;;;;;;5070674;28;20497;-65
2021/05/27 03:08:45;;;;;;;2.90;2.60;;;9.00;99.90;;;;;;5070572;28;20443;-65
2021/05/27 03:11:12;;;;;;;3.17;2.30;;;8.90;99.90;;;;;;5070139;28;20791;-63
2021/05/27 03:13:39;;;;;;;4.00;2.30;;;8.90;99.90;;;;;;5070297;28;20449;-64
2021/05/27 03:16:05;;;;;;;3.23;2.20;;;8.80;99.90;;;;;;5070361;28;20450;-64
2021/05/27 03:18:31;;;;;;;3.60;2.73;;;8.80;99.90;;;;;;5070220;28;20474;-64
2021/05/27 03:20:59;;;;;;;4.53;2.40;;;8.70;99.90;;;;;;5070192;28;21179;-64
2021/05/27 03:23:27;;;;;;;3.23;2.77;;;8.70;99.90;;;;;;5070402;28;20546;-64
2021/05/27 03:25:53;;;;;;;3.97;2.70;;;8.60;99.90;;;;;;5070347;28;20526;-64
2021/05/27 03:28:20;;;;;;;3.70;2.27;;;8.60;99.90;;;;;;5070610;28;20495;-65
2021/05/27 03:30:46;;;;;;;3.27;2.53;;;8.60;99.90;;;;;;5069943;28;20537;-64
2021/05/27 03:33:13;;;;;;;3.90;2.20;;;8.60;99.90;;;;;;5070288;28;20541;-64
2021/05/27 03:35:39;;;;;;;3.63;2.40;;;8.50;99.90;;;;;;5070289;28;20538;-64
2021/05/27 03:38:05;;;;;;;3.47;2.67;;;8.50;99.90;;;;;;5070069;28;20475;-64
2021/05/27 03:40:33;;;;;;;3.07;2.53;;;8.40;99.90;;;;;;5070339;28;20471;-64
2021/05/27 03:43:00;;;;;;;3.83;2.80;;;8.40;99.90;;;;;;5069919;28;20449;-65
2021/05/27 03:45:27;;;;;;;3.20;2.23;;;8.40;99.90;;;;;;5069715;28;20451;-65
2021/05/27 03:47:54;;;;;;;3.47;2.50;;;8.40;99.90;;;;;;5070136;28;20461;-64
2021/05/27 03:50:22;;;;;;;3.30;2.80;;;8.40;99.90;;;;;;5068901;28;20463;-65
2021/05/27 03:52:48;;;;;;;3.47;2.43;;;8.40;99.90;;;;;;5069902;28;21013;-65
2021/05/27 03:55:17;;;;;;;3.23;2.63;;;8.40;99.90;;;;;;5069795;28;20454;-65
2021/05/27 03:57:45;;;;;;;4.77;2.50;;;8.30;99.90;;;;;;5069615;28;20574;-64
2021/05/27 04:03:01;;;;;;;3.80;2.70;;;8.30;99.90;;;;;;5069831;28;20419;-64
2021/05/27 04:08:12;;;;;;;3.40;2.70;;;8.20;99.90;;;;;;5069855;28;20943;-65
2021/05/27 04:10:38;;;;;;;4.03;2.87;;;8.20;99.90;;;;;;5069553;28;20473;-66
2021/05/27 04:13:05;;;;;;;5.07;2.80;;;8.20;99.90;;;;;;5069781;28;20443;-65
2021/05/27 04:15:34;;;;;;;3.23;2.67;;;8.30;99.90;;;;;;5069826;28;20596;-65
2021/05/27 04:18:05;;;;;;;3.53;2.37;;;8.30;99.90;;;;;;5069618;28;20479;-66
2021/05/27 04:20:34;;;;;;;4.80;2.93;;;8.30;99.90;;;;;;5069482;28;20478;-65
2021/05/27 04:23:01;;;;;;;4.07;3.20;;;8.30;99.90;;;;;;5069351;28;20492;-65
2021/05/27 04:25:28;;;;;;;3.73;2.70;;;8.30;99.90;;;;;;5069407;28;20447;-65
2021/05/27 04:27:56;;;;;;;3.10;2.63;;;8.30;99.90;;;;;;5069536;28;20877;-64
2021/05/27 04:30:24;;;;;;;2.87;2.20;;;8.40;99.90;;;;;;5068878;28;20459;-65
2021/05/27 04:32:54;;;;;;;4.93;3.00;;;8.40;99.90;;;;;;5069831;28;20446;-65
2021/05/27 04:35:21;;;;;;;3.00;2.60;;;8.40;99.90;;;;;;5069409;28;20833;-66
2021/05/27 04:37:47;;;;;;;4.30;3.00;;;8.40;99.90;;;;;;5069500;28;20536;-66
2021/05/27 04:40:14;;;;;;;3.10;2.47;;;8.50;99.90;;;;;;5068900;28;20491;-65
2021/05/27 04:42:41;;;;;;;4.93;2.90;;;8.60;99.90;;;;;;5069114;28;20941;-65
2021/05/27 04:45:09;;;;;;;3.37;2.20;;;8.70;99.90;;;;;;5068944;28;20447;-65
2021/05/27 04:47:36;;;;;;;4.43;2.23;;;8.80;99.90;;;;;;5069318;28;20513;-65
2021/05/27 04:50:04;;;;;;;2.47;2.17;;;9.00;99.90;;;;;;5068788;28;20844;-64
2021/05/27 04:52:30;;;;;;;3.00;2.50;;;9.00;99.90;;;;;;5069255;28;20439;-65
2021/05/27 04:54:56;;;;;;;3.57;2.40;;;9.10;99.90;;;;;;5069261;28;20461;-65
2021/05/27 04:57:23;;;;;;;4.00;3.20;;;9.10;99.90;;;;;;5069211;28;20584;-65
2021/05/27 04:59:49;;;;;;;3.57;2.90;;;9.10;99.90;;;;;;5068408;28;20988;-65
2021/05/27 05:02:15;;;;;;;3.50;2.93;;;9.10;99.90;;;;;;5071745;28;20450;-65
2021/05/27 05:04:43;;;;;;;5.00;3.63;;;9.10;99.90;;;;;;5072291;28;20963;-65
2021/05/27 05:07:09;;;;;;;3.67;3.00;;;9.20;99.90;;;;;;5072546;28;20820;-65
2021/05/27 05:09:36;;;;;;;6.53;3.33;;;9.10;99.90;;;;;;5072322;28;21015;-65
2021/05/27 05:12:02;;;;;;;3.70;3.17;;;9.00;99.90;;;;;;5073242;28;20447;-65
2021/05/27 05:14:28;;;;;;;3.67;2.87;;;8.90;99.90;;;;;;5072511;28;20505;-65
2021/05/27 05:16:54;;;;;;;8.07;5.00;;;8.90;99.90;;;;;;5072863;28;20456;-66
2021/05/27 05:19:21;;;;;;;4.97;4.17;;;8.90;99.90;;;;;;5072689;28;20961;-65
2021/05/27 05:21:48;;;;;;;5.50;3.47;;;9.10;99.90;;;;;;5072372;28;20480;-65
2021/05/27 05:24:15;;;;;;;4.37;3.63;;;9.20;99.90;;;;;;5072506;28;20447;-66
2021/05/27 05:26:41;;;;;;;4.10;3.70;;;9.30;99.90;;;;;;5072781;28;21096;-66
2021/05/27 05:29:07;;;;;;;5.40;3.80;;;9.30;99.90;;;;;;5071895;28;21082;-66
2021/05/27 05:31:34;;;;;;;6.27;4.30;;;9.30;99.90;;;;;;5071869;28;20519;-65
2021/05/27 05:34:00;;;;;;;4.77;4.13;;;9.40;99.90;;;;;;5071786;28;20490;-65
2021/05/27 05:36:26;;;;;;;6.30;3.90;;;9.50;99.90;;;;;;5071953;28;20525;-66
2021/05/27 05:38:54;;;;;;;5.80;4.40;;;9.70;99.90;;;;;;5071871;28;20486;-66
2021/05/27 05:41:21;;;;;;;4.60;3.90;;;9.80;99.90;;;;;;5071686;28;20463;-65
2021/05/27 05:43:47;;;;;;;5.20;3.87;;;10.10;99.90;;;;;;5071752;28;20457;-65
2021/05/27 05:46:14;;;;;;;6.93;4.40;;;10.50;99.90;;;;;;5072203;28;20447;-66
2021/05/27 05:48:41;;;;;;;3.47;2.70;;;10.90;99.90;;;;;;5071772;28;20468;-66
2021/05/27 05:51:07;;;;;;;6.80;2.73;;;11.20;99.90;;;;;;5071859;28;20550;-66
2021/05/27 05:53:34;;;;;;;5.03;2.67;;;11.40;99.90;;;;;;5071999;28;20823;-66
2021/05/27 05:56:02;;;;;;;7.07;2.60;;;11.60;99.90;;;;;;5071821;28;20470;-66
2021/05/27 05:58:28;;;;;;;5.03;3.40;;;11.50;99.90;;;;;;5071411;28;20475;-65
2021/05/27 06:00:55;;;;;;;3.90;2.57;;;11.40;99.90;;;;;;5071334;28;20920;-66
2021/05/27 06:03:21;;;;;;;4.40;2.53;;;11.30;99.90;;;;;;5072319;28;20821;-64
2021/05/27 06:05:48;;;;;;;3.50;2.40;;;11.30;99.90;;;;;;5071825;28;21012;-64
2021/05/27 06:08:14;;;;;;;3.17;2.33;;;11.20;99.90;;;;;;5072016;28;20542;-64
2021/05/27 06:10:40;;;;;;;3.30;3.00;;;11.20;99.90;;;;;;5073384;28;20558;-65
2021/05/27 06:13:08;;;;;;;4.33;2.63;;;11.30;99.90;;;;;;5073146;28;20530;-65
2021/05/27 06:15:36;;;;;;;4.30;2.83;;;11.40;99.90;;;;;;5071173;28;20454;-64
2021/05/27 06:18:03;;;;;;;3.77;2.80;;;11.40;99.90;;;;;;5070899;28;20523;-63
2021/05/27 06:20:30;;;;;;;3.43;2.30;;;11.60;99.90;;;;;;5070891;28;20520;-64
2021/05/27 06:22:58;;;;;;;4.13;2.43;;;11.70;99.90;;;;;;5070809;28;20455;-64
2021/05/27 06:25:24;;;;;;;5.20;2.30;;;11.70;99.90;;;;;;5071016;28;20525;-64
2021/05/27 06:27:53;;;;;;;3.30;2.10;;;11.60;99.90;;;;;;5070823;28;20451;-64
2021/05/27 06:30:22;;;;;;;4.10;1.80;;;11.60;99.90;;;;;;5070898;28;20546;-64
2021/05/27 06:32:49;;;;;;;5.40;2.30;;;11.70;99.90;;;;;;5071099;28;20451;-64
2021/05/27 06:35:16;;;;;;;3.80;1.60;;;11.80;99.90;;;;;;5071255;28;20447;-64
2021/05/27 06:37:43;;;;;;;2.80;1.60;;;11.90;99.90;;;;;;5071111;28;20526;-63
2021/05/27 06:40:11;;;;;;;2.90;1.80;;;12.00;99.90;;;;;;5070560;28;20475;-66
2021/05/27 06:42:38;;;;;;;3.40;2.03;;;12.10;99.90;;;;;;5071117;28;20534;-66
2021/05/27 06:45:06;;;;;;;3.83;2.20;;;12.20;99.90;;;;;;5070714;28;20447;-66
2021/05/27 06:47:33;;;;;;;2.90;2.00;;;12.20;99.90;;;;;;5070693;28;20693;-65
2021/05/27 06:50:00;;;;;;;3.20;2.13;;;12.10;99.90;;;;;;5070149;28;20522;-65
2021/05/27 06:52:26;;;;;;;5.10;1.97;;;12.10;99.90;;;;;;5070412;28;20494;-65
2021/05/27 06:54:53;;;;;;;1.90;1.43;;;12.10;99.90;;;;;;5070390;28;20450;-65
2021/05/27 06:57:20;;;;;;;4.77;1.67;;;12.20;99.90;;;;;;5070144;28;20451;-65
2021/05/27 06:59:46;;;;;;;1.77;1.30;;;12.50;99.90;;;;;;5069986;28;20845;-65
2021/05/27 07:02:12;;;;;;;2.80;1.67;;;12.90;99.90;;;;;;5070214;28;20816;-65
2021/05/27 07:04:39;;;;;;;4.40;1.90;;;13.10;99.90;;;;;;5070267;28;20885;-66
2021/05/27 07:07:06;;;;;;;3.73;1.67;;;13.10;99.90;;;;;;5070620;28;20443;-66
2021/05/27 07:09:32;;;;;;;3.50;1.90;;;13.10;99.90;;;;;;5070111;28;20542;-66
2021/05/27 07:11:59;;;;;;;4.60;1.80;;;13.10;99.90;;;;;;5070533;28;20553;-66
2021/05/27 07:14:25;;;;;;;3.63;1.50;;;13.00;99.90;;;;;;5070723;28;20924;-66
2021/05/27 07:16:51;;;;;;;2.43;1.60;;;13.00;99.90;;;;;;5070655;28;20451;-65
2021/05/27 07:19:18;;;;;;;2.60;1.40;;;13.00;99.90;;;;;;5069985;28;20482;-66
2021/05/27 07:21:45;;;;;;;4.10;1.70;;;12.90;99.90;;;;;;5070087;28;20463;-66
2021/05/27 07:24:12;;;;;;;5.07;2.10;;;12.90;99.90;;;;;;5069480;28;20534;-63
2021/05/27 07:26:38;;;;;;;2.40;1.73;;;12.90;99.90;;;;;;5069661;28;20496;-66
2021/05/27 07:29:05;;;;;;;3.50;1.90;;;13.00;99.90;;;;;;5069689;28;20439;-66
2021/05/27 07:31:32;;;;;;;5.43;1.53;;;13.00;99.90;;;;;;5069992;28;20470;-66
2021/05/27 07:33:59;;;;;;;3.63;1.80;;;13.30;99.90;;;;;;5070001;28;20454;-66
2021/05/27 07:36:26;;;;;;;2.50;1.60;;;13.30;99.90;;;;;;5069954;28;20447;-63
2021/05/27 07:38:53;;;;;;;4.27;1.80;;;13.40;99.90;;;;;;5069820;28;20574;-66
2021/05/27 07:41:19;;;;;;;2.70;1.60;;;13.50;99.90;;;;;;5069826;28;20470;-66
2021/05/27 07:43:46;;;;;;;2.63;1.87;;;13.20;99.90;;;;;;5070150;28;20859;-66
2021/05/27 07:46:12;;;;;;;2.53;1.70;;;13.00;99.90;;;;;;5070200;28;20539;-66
2021/05/27 07:48:39;;;;;;;4.27;1.97;;;12.90;99.90;;;;;;5070058;28;20530;-66
2021/05/27 07:51:05;;;;;;;7.37;1.77;;;13.00;99.90;;;;;;5069552;28;20553;-65
2021/05/27 07:53:32;;;;;;;4.17;1.83;;;13.10;99.90;;;;;;5070118;28;20451;-66
2021/05/27 07:55:59;;;;;;;4.07;1.87;;;13.50;99.90;;;;;;5070209;28;20445;-66
2021/05/27 07:58:26;;;;;;;2.53;1.57;;;13.70;99.90;;;;;;5069936;28;20489;-66
2021/05/27 08:00:52;;;;;;;3.80;1.50;;;13.80;99.90;;;;;;5069395;28;20529;-66
2021/05/27 08:03:18;;;;;;;5.70;2.30;;;13.80;99.90;;;;;;5070021;28;20935;-66
2021/05/27 08:05:45;;;;;;;2.77;1.50;;;13.90;99.90;;;;;;5069759;28;20941;-66
2021/05/27 08:08:11;;;;;;;4.53;2.10;;;13.90;99.90;;;;;;5070154;28;21138;-66
2021/05/27 08:10:38;;;;;;;3.80;1.50;;;13.60;99.90;;;;;;5069776;28;20972;-66
2021/05/27 08:13:05;;;;;;;2.20;1.47;;;13.40;99.90;;;;;;5069949;28;20451;-66
2021/05/27 08:15:31;;;;;;;4.07;2.10;;;13.40;99.90;;;;;;5070220;28;20457;-66
2021/05/27 08:17:58;;;;;;;3.17;1.83;;;13.50;99.90;;;;;;5069650;28;20453;-66
2021/05/27 08:20:24;;;;;;;5.23;1.60;;;13.80;99.90;;;;;;5069379;28;20465;-65
2021/05/27 08:22:50;;;;;;;3.63;1.90;;;14.30;99.90;;;;;;5069920;28;20451;-66
2021/05/27 08:25:17;;;;;;;2.30;1.57;;;14.40;99.90;;;;;;5069835;28;20486;-66
2021/05/27 08:27:43;;;;;;;3.13;1.70;;;14.60;99.90;;;;;;5069790;28;20457;-67
2021/05/27 08:30:11;;;;;;;1.90;1.30;;;15.00;99.90;;;;;;5069258;28;21039;-66
2021/05/27 08:32:38;;;;;;;3.40;1.50;;;15.20;99.90;;;;;;5069515;28;21010;-65
2021/05/27 08:35:05;;;;;;;4.70;1.50;;;15.20;99.90;;;;;;5069694;28;20542;-66
2021/05/27 08:37:31;;;;;;;2.70;1.50;;;15.10;99.90;;;;;;5072695;28;20538;-63
2021/05/27 08:39:58;;;;;;;3.23;1.80;;;15.10;99.90;;;;;;5072659;28;20486;-67
2021/05/27 08:42:24;;;;;;;2.57;1.50;;;15.10;99.90;;;;;;5073156;28;20475;-66
2021/05/27 08:44:51;;;;;;;2.30;1.40;;;15.20;99.90;;;;;;5073105;28;20466;-66
2021/05/27 08:47:19;;;;;;;2.40;1.80;;;15.40;99.90;;;;;;5073414;28;20449;-66
2021/05/27 08:49:48;;;;;;;2.57;1.37;;;15.20;99.90;;;;;;5072661;28;20439;-67
2021/05/27 08:52:15;;;;;;;5.10;2.00;;;15.10;99.90;;;;;;5072956;28;20508;-66
2021/05/27 08:54:42;;;;;;;4.57;2.70;;;15.10;99.90;;;;;;5073275;28;20558;-66
2021/05/27 08:57:08;;;;;;;2.30;1.60;;;15.30;99.90;;;;;;5073268;28;20830;-66
2021/05/27 08:59:34;;;;;;;6.50;1.87;;;15.60;99.90;;;;;;5073157;28;20565;-66
2021/05/27 09:02:06;;;;;;;4.60;1.50;;;15.70;99.90;;;;;;5073079;28;20454;-66
2021/05/27 09:04:34;;;;;;;10.57;3.40;;;15.60;99.90;;;;;;5073129;28;20550;-65
2021/05/27 09:07:01;;;;;;;4.03;2.07;;;15.70;99.90;;;;;;5072966;28;20455;-66
2021/05/27 09:09:48;;;;;;;2.30;1.40;;;15.50;99.90;;;;;;5072630;28;20447;-64
2021/05/27 09:12:33;;;;;;;2.13;1.20;;;15.10;99.90;;;;;;5072576;28;20447;-66
2021/05/27 09:15:01;;;;;;;3.17;1.30;;;15.40;99.90;;;;;;5073148;28;20438;-66
2021/05/27 09:17:42;;;;;;;3.40;1.63;;;16.00;99.60;;;;;;5072827;28;20520;-65
2021/05/27 09:20:16;;;;;;;2.97;1.70;;;16.20;99.90;;;;;;5072052;28;20574;-66
2021/05/27 09:22:43;;;;;;;3.20;1.70;;;15.80;99.90;;;;;;5072262;28;20530;-65
2021/05/27 09:25:27;;;;;;;2.97;1.23;;;15.30;99.90;;;;;;5072202;28;20486;-66
2021/05/27 09:27:54;;;;;;;2.83;1.37;;;15.00;99.90;;;;;;5072510;28;20534;-66
2021/05/27 09:30:22;;;;;;;4.20;1.60;;;15.10;99.90;;;;;;5072059;28;20554;-65
2021/05/27 09:32:49;;;;;;;2.90;1.43;;;15.20;99.90;;;;;;5072411;28;20447;-65
2021/05/27 09:35:17;;;;;;;3.17;1.63;;;15.20;99.90;;;;;;5072136;28;20447;-66
2021/05/27 09:37:49;;;;;;;2.90;1.70;;;15.00;99.90;;;;;;5072355;28;20530;-66
2021/05/27 09:40:36;;;;;;;2.43;1.40;;;15.20;99.90;;;;;;5071740;28;20491;-65
2021/05/27 09:43:04;;;;;;;3.03;1.20;;;15.50;99.90;;;;;;5072434;28;20454;-65
2021/05/27 09:45:32;;;;;;;2.57;1.10;;;15.50;99.50;;;;;;5072095;28;20441;-65
2021/05/27 09:48:15;;;;;;;1.70;1.20;;;15.40;99.90;;;;;;5071015;28;20473;-65
2021/05/27 09:50:43;;;;;;;2.33;1.30;;;15.30;99.80;;;;;;5073363;28;21013;-66
2021/05/27 09:53:17;;;;;;;6.73;1.70;;;15.60;99.90;;;;;;5074194;28;20462;-65
2021/05/27 09:55:45;;;;;;;3.87;1.60;;;15.60;99.00;;;;;;5071883;28;20451;-65
2021/05/27 09:58:14;;;;;;;3.33;1.83;;;15.60;99.50;;;;;;5071493;28;20473;-66
2021/05/27 10:00:42;;;;;;;1.90;1.33;;;15.30;99.90;;;;;;5071091;28;20467;-65
2021/05/27 10:03:28;;;;;;;2.10;1.40;;;15.20;99.90;;;;;;5071596;28;20449;-66
2021/05/27 10:05:56;;;;;;;2.43;1.47;;;14.90;99.90;;;;;;5071562;28;21114;-65
2021/05/27 10:08:23;;;;;;;4.00;1.80;;;14.80;99.90;;;;;;5071453;28;20917;-66
2021/05/27 10:10:50;;;;;;;6.53;2.70;;;14.80;99.90;;;;;;5070807;28;20554;-66
2021/05/27 10:13:20;;;;;;;3.47;2.43;;;15.00;99.90;;;;;;5071184;28;20945;-65
2021/05/27 10:15:46;;;;;;;3.00;1.83;;;15.30;99.90;;;;;;5071409;28;20512;-65
2021/05/27 10:18:15;;;;;;;2.30;1.60;;;15.40;99.90;;;;;;5071292;28;20451;-65
2021/05/27 10:20:42;;;;;;;2.47;1.83;;;15.40;99.90;;;;;;5070846;28;20473;-66
2021/05/27 10:23:09;;;;;;;3.03;2.27;;;15.30;99.90;;;;;;5070891;28;20551;-66
2021/05/27 10:25:36;;;;;;;3.70;2.20;;;14.90;99.90;;;;;;5070835;28;20942;-66
2021/05/27 10:28:04;;;;;;;3.40;1.93;;;14.60;99.90;;;;;;5071284;28;20537;-66
2021/05/27 10:30:37;;;;;;;3.03;1.70;;;14.50;99.90;;;;;;5070798;28;20465;-66
2021/05/27 10:33:05;;;;;;;2.70;1.93;;;14.60;99.90;;;;;;5070882;28;20458;-65
2021/05/27 10:35:54;;;;;;;2.10;1.80;;;15.00;99.90;;;;;;5070873;28;20454;-66
2021/05/27 10:38:48;;;;;;;2.93;1.73;;;15.50;99.90;;;;;;5065131;28;20454;-65
2021/05/27 10:41:17;;;;;;;4.10;2.00;;;15.90;99.90;;;;;;5070146;28;21020;-66
2021/05/27 10:44:07;;;;;;;3.13;2.30;;;16.10;99.90;;;;;;5070719;28;20489;-65
2021/05/27 10:46:54;;;;;;;4.00;2.00;;;16.40;99.90;;;;;;5070745;28;21218;-66
2021/05/27 10:49:51;;;;;;;12.87;4.10;;;16.60;99.90;;;;;;5070163;28;20566;-65
2021/05/27 10:52:37;;;;;;;4.87;1.97;;;16.80;99.90;;;;;;5070172;28;20443;-66
2021/05/27 10:55:40;;;;;;;2.10;1.50;;;16.90;99.90;;;;;;5070948;28;20531;-66
2021/05/27 10:58:08;;;;;;;2.60;1.30;;;17.10;99.90;;;;;;5070912;28;20453;-66
2021/05/27 11:01:01;;;;;;;5.00;1.83;;;17.30;99.80;;;;;;5070519;28;20557;-66
2021/05/27 11:03:55;;;;;;;6.20;2.10;;;17.70;99.90;;;;;;5023256;28;20459;-66
2021/05/27 11:06:23;;;;;;;3.03;1.80;;;17.80;98.70;;;;;;5023322;28;21005;-66
2021/05/27 11:09:27;;;;;;;3.43;1.80;;;17.60;98.70;;;;;;5070208;28;20813;-66
2021/05/27 11:11:56;;;;;;;1.90;1.40;;;17.50;99.60;;;;;;5056508;28;20487;-65
2021/05/27 11:14:26;;;;;;;3.33;1.70;;;17.40;99.90;;;;;;5070317;28;20451;-65
2021/05/27 11:17:16;;;;;;;2.60;1.83;;;17.30;98.30;;;;;;5070046;28;20459;-65
2021/05/27 11:19:47;;;;;;;3.23;1.80;;;17.30;98.50;;;;;;5069869;28;20505;-66
2021/05/27 11:22:45;;;;;;;2.90;1.30;;;17.60;97.40;;;;;;5069962;28;20493;-65
2021/05/27 11:25:35;;;;;;;2.43;1.63;;;17.90;97.90;;;;;;5062542;28;20463;-66
2021/05/27 11:28:38;;;;;;;3.30;1.80;;;18.30;97.00;;;;;;5070285;28;20500;-65
2021/05/27 11:31:06;;;;;;;5.10;1.60;;;19.00;97.00;;;;;;5069829;28;20463;-66
2021/05/27 11:33:34;;;;;;;3.97;2.00;;;19.00;95.30;;;;;;5070214;28;20454;-65
2021/05/27 11:36:03;;;;;;;2.73;2.07;;;18.30;96.30;;;;;;5069747;28;20439;-65
2021/05/27 11:38:32;;;;;;;3.93;1.40;;;18.40;96.80;;;;;;5069838;28;20507;-66
2021/05/27 11:41:02;;;;;;;2.93;1.57;;;18.10;95.20;;;;;;5069789;28;20857;-66
2021/05/27 11:43:30;;;;;;;2.37;1.50;;;18.30;95.50;;;;;;5069696;28;20537;-65
2021/05/27 11:45:58;;;;;;;2.97;1.37;;;18.60;95.80;;;;;;5069752;28;20471;-66
2021/05/27 11:48:30;;;;;;;6.17;2.47;;;19.00;96.60;;;;;;5069700;28;20519;-66
2021/05/27 11:51:05;;;;;;;2.20;1.30;;;19.10;94.70;;;;;;5069342;28;20495;-66
2021/05/27 11:53:50;;;;;;;3.53;1.73;;;18.60;95.50;;;;;;5069983;28;20856;-66
2021/05/27 11:56:42;;;;;;;2.90;1.40;;;18.50;96.20;;;;;;5069988;28;20455;-66
2021/05/27 11:59:11;;;;;;;2.57;1.40;;;18.80;95.00;;;;;;5069346;28;21107;-65
2021/05/27 12:01:39;;;;;;;2.80;1.77;;;19.20;96.20;;;;;;5069867;28;21136;-66
2021/05/27 12:04:15;;;;;;;2.53;1.50;;;19.80;93.10;;;;;;5069726;28;20442;-65
2021/05/27 12:07:03;;;;;;;3.50;1.80;;;19.70;93.40;;;;;;5070108;28;20439;-65
2021/05/27 12:09:35;;;;;;;4.03;1.77;;;19.60;94.50;;;;;;5063143;28;20533;-66
2021/05/27 12:12:27;;;;;;;2.43;1.30;;;19.80;93.10;;;;;;5071957;28;20458;-66
2021/05/27 12:14:56;;;;;;;3.13;1.20;;;19.40;93.50;;;;;;5054171;28;20842;-66
2021/05/27 12:17:26;;;;;;;2.50;1.80;;;19.60;92.40;;;;;;5073581;28;20822;-65
2021/05/27 12:19:55;;;;;;;2.77;1.50;;;19.80;92.90;;;;;;5072730;28;20474;-66
2021/05/27 12:22:22;;;;;;;3.60;1.70;;;20.50;93.40;;;;;;5073428;28;20462;-66
2021/05/27 12:25:05;;;;;;;2.90;1.50;;;20.60;91.50;;;;;;5073493;28;20443;-65
2021/05/27 12:27:42;;;;;;;2.93;1.47;;;20.10;91.00;;;;;;5073856;28;20842;-66
2021/05/27 12:30:10;;;;;;;3.70;1.70;;;19.80;91.50;;;;;;5073154;28;20470;-65
2021/05/27 12:32:39;;;;;;;2.77;1.63;;;19.90;92.30;;;;;;5073576;28;20520;-66
2021/05/27 12:35:08;;;;;;;4.43;1.33;;;20.40;92.20;;;;;;5073253;28;20489;-65
2021/05/27 12:37:39;;;;;;;3.67;1.50;;;21.10;90.50;;;;;;5073533;28;20446;-66
2021/05/27 12:40:08;;;;;;;2.10;1.30;;;21.20;90.00;;;;;;5072993;28;20479;-65
2021/05/27 12:42:37;;;;;;;3.03;1.20;;;21.30;86.90;;;;;;5073257;28;20868;-66
2021/05/27 12:45:26;;;;;;;2.40;1.50;;;20.70;87.30;;;;;;5073572;28;20817;-66
2021/05/27 12:48:06;;;;;;;4.23;1.50;;;20.00;90.90;;;;;;5073683;28;20447;-66
2021/05/27 12:50:34;;;;;;;2.33;1.50;;;19.40;91.70;;;;;;5073080;28;20828;-65
2021/05/27 12:53:00;;;;;;;2.20;1.50;;;19.20;92.20;;;;;;5073040;28;20438;-66
2021/05/27 12:55:28;;;;;;;3.37;1.70;;;18.90;92.70;;;;;;5073367;28;20529;-66
2021/05/27 12:57:55;;;;;;;4.50;1.70;;;19.00;93.20;;;;;;5073174;28;20491;-65
2021/05/27 13:00:22;;;;;;;3.07;1.80;;;18.80;92.10;;;;;;5072865;28;20521;-65
2021/05/27 13:02:59;;;;;;;2.60;1.50;;;18.50;92.50;;;;;;5073030;28;20473;-66
2021/05/27 13:05:26;;;;;;;2.37;1.63;;;18.20;93.00;;;;;;5073408;28;20533;-65
2021/05/27 13:07:57;;;;;;;2.43;1.30;;;18.00;93.10;;;;;;5072559;28;20541;-65